Time;durP1;ratioP1;P1;durP2;ratioP2;P2;SDS_P1;SDS_P2;PMS_P1;PMS_P2;Temp;Humidity;BMP_temperature;BMP_pressure;BME280_temperature;BME280_humidity;BME280_pressure;Samples;Min_cycle;Max_cycle;Signal;HPM_P1;HPM_P2
2023/02/27 00:01:42;;;;;;;4.95;4.07;;;;;;;5.84;67.83;100672.22;5026200;28;20026;-79
2023/02/27 00:04:08;;;;;;;3.65;2.10;;;;;;;5.83;67.36;100662.84;5011118;28;20041;-79
2023/02/27 00:06:33;;;;;;;4.18;3.35;;;;;;;5.88;67.51;100666.13;5010630;28;20029;-79
2023/02/27 00:08:59;;;;;;;6.35;3.20;;;;;;;5.89;67.33;100654.13;4993459;28;20042;-79
2023/02/27 00:11:24;;;;;;;4.63;3.03;;;;;;;5.86;67.56;100661.91;5009588;28;20034;-79
2023/02/27 00:13:50;;;;;;;3.05;2.08;;;;;;;5.86;67.50;100647.34;5009642;28;20033;-79
2023/02/27 00:16:15;;;;;;;6.25;3.58;;;;;;;5.93;67.35;100656.59;5025886;28;20053;-79
2023/02/27 00:18:41;;;;;;;7.57;4.35;;;;;;;5.72;67.52;100641.78;5009497;28;20524;-79
2023/02/27 00:21:06;;;;;;;6.22;2.80;;;;;;;5.94;67.42;100685.69;5025836;28;20080;-79
2023/02/27 00:23:32;;;;;;;5.13;3.20;;;;;;;5.92;67.46;100687.47;5009534;28;20036;-79
2023/02/27 00:25:59;;;;;;;7.80;5.95;;;;;;;5.87;67.65;100684.97;5025796;28;20515;-79
2023/02/27 00:28:25;;;;;;;6.82;3.97;;;;;;;5.78;67.39;100676.69;5025730;28;20038;-79
2023/02/27 00:30:51;;;;;;;4.00;2.45;;;;;;;5.90;67.20;100674.66;5009474;28;20080;-79
2023/02/27 00:33:16;;;;;;;8.02;4.35;;;;;;;5.84;66.82;100654.25;5026054;28;20034;-79
2023/02/27 00:35:42;;;;;;;5.15;3.00;;;;;;;6.00;67.08;100668.38;5010368;28;20529;-79
2023/02/27 00:38:07;;;;;;;7.85;4.13;;;;;;;6.03;66.62;100670.00;5025916;28;20038;-80
2023/02/27 00:40:34;;;;;;;13.70;2.85;;;;;;;6.06;67.15;100693.03;5025906;28;20033;-79
2023/02/27 00:43:01;;;;;;;5.47;4.32;;;;;;;6.13;67.14;100688.56;5010699;28;20065;-79
2023/02/27 00:45:26;;;;;;;7.55;4.75;;;;;;;6.16;66.49;100675.63;5025534;28;20504;-79
2023/02/27 00:47:52;;;;;;;3.88;3.30;;;;;;;6.29;66.21;100690.63;5025489;28;20036;-79
2023/02/27 00:50:17;;;;;;;17.60;6.15;;;;;;;6.20;66.37;100705.47;5008893;28;20025;-79
2023/02/27 00:52:42;;;;;;;4.82;3.05;;;;;;;6.26;66.60;100718.13;5009210;28;20050;-79
2023/02/27 00:55:09;;;;;;;8.35;3.25;;;;;;;6.26;66.60;100728.41;5009239;28;20417;-79
2023/02/27 00:57:34;;;;;;;5.32;2.60;;;;;;;6.24;66.49;100727.63;5025758;28;20061;-79
2023/02/27 01:00:00;;;;;;;5.63;3.40;;;;;;;6.21;66.60;100715.72;5010500;28;20057;-79
2023/02/27 01:02:25;;;;;;;3.85;2.67;;;;;;;6.24;66.44;100740.47;5025700;28;20037;-79
2023/02/27 01:04:51;;;;;;;4.60;2.90;;;;;;;6.04;66.53;100718.75;5025147;28;20022;-79
2023/02/27 01:07:16;;;;;;;10.02;3.20;;;;;;;6.16;66.69;100732.13;5025549;28;20500;-79
2023/02/27 01:09:41;;;;;;;6.22;4.95;;;;;;;6.15;67.02;100741.56;5025666;28;20030;-79
2023/02/27 01:12:07;;;;;;;5.20;2.55;;;;;;;6.13;67.37;100748.47;5025510;28;20026;-79
2023/02/27 01:14:33;;;;;;;9.77;4.03;;;;;;;6.17;67.42;100751.78;5009076;28;20037;-79
2023/02/27 01:16:58;;;;;;;12.90;3.55;;;;;;;6.11;67.30;100749.41;5025543;28;20025;-79
2023/02/27 01:19:24;;;;;;;8.85;3.45;;;;;;;6.07;67.57;100738.38;5010650;28;20413;-79
2023/02/27 01:21:50;;;;;;;4.57;2.60;;;;;;;6.14;68.87;100768.13;5012627;28;20030;-79
2023/02/27 01:24:15;;;;;;;9.38;5.00;;;;;;;5.76;70.18;100722.94;5029435;28;20049;-79
2023/02/27 01:26:41;;;;;;;9.75;3.85;;;;;;;6.06;71.03;100787.22;5029076;28;20535;-80
2023/02/27 01:29:06;;;;;;;7.63;4.13;;;;;;;5.72;72.35;100722.19;5029124;28;20034;-80
2023/02/27 01:31:32;;;;;;;4.25;3.03;;;;;;;5.82;73.77;100750.19;5028660;28;20026;-80
2023/02/27 01:33:57;;;;;;;6.75;2.63;;;;;;;5.84;75.21;100762.09;5028700;28;20061;-80
2023/02/27 01:36:22;;;;;;;5.32;3.05;;;;;;;5.88;75.77;100783.38;5028885;28;20018;-80
2023/02/27 01:38:48;;;;;;;6.07;3.45;;;;;;;5.86;76.47;100780.03;5029173;28;20041;-81
2023/02/27 01:41:13;;;;;;;6.03;3.08;;;;;;;5.78;77.60;100777.66;5028896;28;20030;-81
2023/02/27 01:43:56;;;;;;;14.82;3.72;;;;;;;5.72;79.06;100772.69;5028889;28;20033;-81
2023/02/27 01:46:22;;;;;;;;;;;;;;;5.72;80.10;100780.41;5012224;28;20409;-81
2023/02/27 01:48:47;;;;;;;12.68;4.53;;;;;;;5.26;80.60;100748.22;5028655;28;19914;-81
2023/02/27 01:51:17;;;;;;;4.93;3.92;;;;;;;5.31;82.13;100760.91;5028543;28;20022;-80
2023/02/27 01:53:43;;;;;;;5.45;2.05;;;;;;;5.37;82.79;100787.25;5028203;28;20026;-81
2023/02/27 01:56:17;;;;;;;13.50;6.35;;;;;;;5.46;83.49;100812.69;5028506;28;20117;-80
2023/02/27 01:58:42;;;;;;;8.15;3.60;;;;;;;5.21;83.20;100813.31;5013242;28;20022;-80
2023/02/27 02:01:08;;;;;;;10.82;4.50;;;;;;;5.10;83.93;100813.56;5027779;28;20505;-81
2023/02/27 02:03:44;;;;;;;11.55;2.88;;;;;;;4.99;84.95;100810.41;5028445;28;20030;-81
2023/02/27 02:06:09;;;;;;;2.53;1.88;;;;;;;5.02;84.22;100825.75;5028702;28;20030;-80
2023/02/27 02:08:38;;;;;;;5.13;2.85;;;;;;;5.10;84.05;100855.44;5028145;28;20029;-81
2023/02/27 02:11:04;;;;;;;12.95;4.45;;;;;;;5.04;83.95;100834.25;5011766;28;20033;-80
2023/02/27 02:13:30;;;;;;;7.57;4.07;;;;;;;5.11;83.46;100858.84;5028235;28;20026;-80
2023/02/27 02:16:33;;;;;;;4.15;3.72;;;;;;;5.16;82.67;100864.75;5011397;28;21223;-80
2023/02/27 02:19:17;;;;;;;5.07;2.78;;;;;;;5.24;83.18;100870.53;5028196;28;20061;-80
2023/02/27 02:21:53;;;;;;;6.97;3.90;;;;;;;5.06;82.80;100847.88;5013005;28;20038;-80
2023/02/27 02:24:34;;;;;;;6.57;4.13;;;;;;;5.17;83.04;100881.81;5027882;28;20032;-80
2023/02/27 02:27:26;;;;;;;4.60;2.85;;;;;;;5.05;83.20;100872.69;5011372;28;20037;-80
2023/02/27 02:30:22;;;;;;;4.75;3.60;;;;;;;5.07;83.57;100888.84;5026579;28;20033;-80
2023/02/27 02:33:12;;;;;;;6.90;6.22;;;;;;;4.76;83.56;100845.09;5011270;28;20061;-80
2023/02/27 02:36:14;;;;;;;6.30;3.00;;;;;;;4.84;83.82;100880.84;5027701;28;20022;-80
2023/02/27 02:39:18;;;;;;;8.87;2.90;;;;;;;4.94;84.36;100899.44;5012559;28;20034;-80
2023/02/27 02:41:52;;;;;;;2.33;1.88;;;;;;;4.85;83.97;100905.59;4998165;28;20042;-80
2023/02/27 02:44:36;;;;;;;6.55;2.58;;;;;;;4.85;84.85;100916.69;5027425;28;20029;-80
2023/02/27 02:47:13;;;;;;;6.13;4.25;;;;;;;4.82;84.22;100921.88;5011945;28;20084;-80
2023/02/27 02:50:20;;;;;;;2.95;2.28;;;;;;;4.74;83.82;100913.50;5011938;28;20087;-81
2023/02/27 02:53:27;;;;;;;7.97;3.55;;;;;;;4.71;84.86;100913.53;4981256;28;20050;-81
2023/02/27 02:56:09;;;;;;;2.88;1.77;;;;;;;4.85;84.39;100937.19;5027314;28;20477;-81
2023/02/27 02:58:47;;;;;;;2.17;1.50;;;;;;;4.88;85.11;100956.78;5010537;28;21022;-81
2023/02/27 03:01:22;;;;;;;2.38;1.85;;;;;;;4.76;85.38;100962.16;5027316;28;20061;-81
2023/02/27 03:03:53;;;;;;;2.80;2.10;;;;;;;4.76;85.38;100965.56;5027575;28;20041;-81
2023/02/27 03:06:26;;;;;;;2.80;2.30;;;;;;;4.59;85.92;100950.50;5026850;28;20061;-81
2023/02/27 03:08:57;;;;;;;8.48;3.33;;;;;;;4.89;85.98;100991.81;5027114;28;20541;-81
2023/02/27 03:11:23;;;;;;;7.55;2.75;;;;;;;4.97;85.03;101000.19;5026814;28;20030;-81
2023/02/27 03:14:00;;;;;;;4.53;2.88;;;;;;;4.88;83.68;101003.78;5026474;28;20030;-81
2023/02/27 03:16:35;;;;;;;5.85;3.60;;;;;;;4.67;84.05;100988.81;5010579;28;20038;-80
2023/02/27 03:19:22;;;;;;;7.45;4.25;;;;;;;4.84;84.22;101027.78;5027040;28;20059;-81
2023/02/27 03:21:58;;;;;;;7.35;5.50;;;;;;;4.67;83.74;101034.94;5027326;28;20030;-80
2023/02/27 03:24:30;;;;;;;9.88;4.25;;;;;;;4.73;84.17;101034.84;5010333;28;20076;-81
2023/02/27 03:26:58;;;;;;;8.35;4.63;;;;;;;4.76;85.16;101026.25;5026620;28;20552;-81
2023/02/27 03:29:30;;;;;;;8.80;5.18;;;;;;;4.86;83.51;101050.84;5010027;28;20471;-81
2023/02/27 03:31:57;;;;;;;9.35;5.72;;;;;;;4.95;82.06;101054.94;5026505;28;20038;-81
2023/02/27 03:34:33;;;;;;;5.57;2.83;;;;;;;4.89;82.29;101061.88;5010282;28;20034;-81
2023/02/27 03:37:03;;;;;;;20.98;2.35;;;;;;;4.65;83.36;101062.31;5010148;28;20041;-81
2023/02/27 03:40:01;;;;;;;8.75;6.10;;;;;;;4.61;84.22;101091.41;5026745;28;20018;-80
2023/02/27 03:42:35;;;;;;;4.75;2.63;;;;;;;4.48;83.39;101100.19;4983409;28;20067;-80
2023/02/27 03:45:09;;;;;;;2.28;1.88;;;;;;;4.35;84.30;101091.03;5026315;28;20052;-80
2023/02/27 03:47:35;;;;;;;3.58;1.58;;;;;;;4.28;84.06;101087.69;5026154;28;20408;-80
2023/02/27 03:50:00;;;;;;;1.85;1.20;;;;;;;4.13;85.00;101088.78;5026241;28;20038;-80
2023/02/27 03:52:26;;;;;;;4.53;1.90;;;;;;;4.25;84.73;101113.38;5026169;28;20108;-80
2023/02/27 03:55:13;;;;;;;3.35;2.50;;;;;;;4.35;86.29;101130.28;5026275;28;20026;-80
2023/02/27 03:57:39;;;;;;;1.95;0.95;;;;;;;4.16;84.82;101105.81;5009492;28;20029;-81
2023/02/27 04:00:05;;;;;;;2.28;1.80;;;;;;;4.27;84.47;101130.41;5009825;28;20026;-78
2023/02/27 04:02:31;;;;;;;3.63;2.28;;;;;;;4.30;84.21;101132.06;5026280;28;20022;-78
2023/02/27 04:04:56;;;;;;;3.40;1.85;;;;;;;4.23;83.31;101121.09;5026540;28;20091;-78
2023/02/27 04:07:42;;;;;;;2.10;1.73;;;;;;;4.28;84.12;101129.53;5010978;28;20045;-78
2023/02/27 04:10:29;;;;;;;2.75;2.05;;;;;;;4.34;82.47;101138.00;5009812;28;20405;-80
2023/02/27 04:13:15;;;;;;;4.35;2.70;;;;;;;4.31;82.04;101147.41;5010626;28;20121;-80
2023/02/27 04:15:43;;;;;;;5.47;3.00;;;;;;;4.41;82.12;101144.69;5026088;28;20113;-80
2023/02/27 04:18:39;;;;;;;5.53;2.50;;;;;;;4.50;81.91;101153.09;5010654;28;20030;-80
2023/02/27 04:21:06;;;;;;;5.93;3.10;;;;;;;4.29;81.58;101143.19;5010866;28;20025;-79
2023/02/27 04:23:38;;;;;;;1.38;0.98;;;;;;;4.29;82.01;101146.59;5026057;28;20455;-79
2023/02/27 04:26:18;;;;;;;9.90;3.13;;;;;;;4.38;80.49;101155.84;5025452;28;20489;-79
2023/02/27 04:28:47;;;;;;;2.58;1.77;;;;;;;4.41;81.01;101170.31;5025786;28;20034;-79
2023/02/27 04:31:23;;;;;;;1.88;1.63;;;;;;;4.47;81.39;101177.94;5025186;28;20038;-81
2023/02/27 04:33:51;;;;;;;5.43;2.85;;;;;;;4.28;81.53;101156.84;5021211;28;20065;-79
2023/02/27 04:36:40;;;;;;;3.58;3.13;;;;;;;4.29;80.90;101167.06;4993438;28;20113;-79
2023/02/27 04:39:27;;;;;;;4.53;0.98;;;;;;;4.49;81.33;101194.13;4977266;28;20034;-78
2023/02/27 04:41:56;;;;;;;0.30;0.30;;;;;;;4.42;80.90;101190.78;5008722;28;20033;-79
2023/02/27 04:44:21;;;;;;;3.22;2.65;;;;;;;4.44;80.69;101168.56;4993215;28;20052;-81
2023/02/27 04:46:47;;;;;;;2.50;2.05;;;;;;;4.52;80.31;101184.69;5009118;28;20497;-80
2023/02/27 04:49:23;;;;;;;4.03;2.47;;;;;;;4.47;79.44;101188.16;4990438;28;20026;-80
2023/02/27 04:51:55;;;;;;;3.83;2.08;;;;;;;4.50;79.65;101191.53;5024113;28;20474;-80
2023/02/27 04:54:35;;;;;;;3.28;2.60;;;;;;;4.51;78.91;101197.50;4992053;28;20049;-80
2023/02/27 04:57:03;;;;;;;6.78;2.65;;;;;;;4.56;78.61;101200.84;5012708;28;20456;-80
2023/02/27 04:59:35;;;;;;;3.42;1.58;;;;;;;4.48;78.47;101203.53;4996327;28;20030;-80
2023/02/27 05:02:23;;;;;;;1.33;1.23;;;;;;;4.42;79.04;101193.34;4996873;28;20037;-80
2023/02/27 05:04:49;;;;;;;1.65;1.40;;;;;;;4.32;78.85;101195.19;4997892;28;20041;-79
2023/02/27 05:07:16;;;;;;;3.05;2.70;;;;;;;4.27;79.06;101189.31;5011352;28;20025;-80
2023/02/27 05:09:51;;;;;;;5.70;2.28;;;;;;;4.28;78.25;101201.25;4995979;28;20026;-79
2023/02/27 05:12:24;;;;;;;4.78;3.38;;;;;;;4.21;78.45;101212.44;4996489;28;20030;-79
2023/02/27 05:15:01;;;;;;;1.05;0.98;;;;;;;4.18;80.18;101209.06;4996884;28;20030;-82
2023/02/27 05:17:29;;;;;;;1.38;1.13;;;;;;;4.28;79.18;101237.09;5012827;28;20509;-79
2023/02/27 05:19:55;;;;;;;3.50;2.17;;;;;;;4.39;78.50;101254.88;5010307;28;20041;-92
2023/02/27 05:22:32;;;;;;;2.78;2.15;;;;;;;4.34;78.59;101271.19;4995835;28;20030;-85
2023/02/27 05:25:06;;;;;;;3.90;2.22;;;;;;;4.38;80.13;101252.34;4994104;28;20480;-90
2023/02/27 05:27:39;;;;;;;2.45;1.83;;;;;;;4.40;78.38;101276.22;5005576;28;20040;-81
2023/02/27 05:30:18;;;;;;;1.60;1.50;;;;;;;4.54;79.46;101294.84;4996172;28;20033;-79
2023/02/27 05:32:45;;;;;;;2.38;2.03;;;;;;;4.56;79.34;101305.91;5011711;28;20064;-83
2023/02/27 05:35:31;;;;;;;2.75;2.22;;;;;;;4.59;78.06;101298.19;5012168;28;20057;-90
2023/02/27 05:38:20;;;;;;;3.22;1.45;;;;;;;4.20;78.77;101272.19;5028868;28;20030;-89
2023/02/27 05:40:47;;;;;;;3.75;2.85;;;;;;;4.30;78.69;101312.19;5001344;28;20069;-86
2023/02/27 05:43:19;;;;;;;4.78;2.28;;;;;;;4.22;78.66;101314.00;5023968;28;20033;-89
2023/02/27 05:45:46;;;;;;;1.52;1.42;;;;;;;3.93;79.25;101310.91;4995993;28;20034;-86
2023/02/27 05:48:17;;;;;;;8.50;3.75;;;;;;;4.01;79.16;101329.63;4995280;28;20389;-84
2023/02/27 05:50:43;;;;;;;7.13;4.05;;;;;;;4.09;79.42;101342.34;4995880;28;20412;-80
2023/02/27 05:53:10;;;;;;;4.85;3.95;;;;;;;3.97;79.41;101331.38;4993660;28;20053;-83
2023/02/27 05:55:50;;;;;;;9.05;5.13;;;;;;;4.02;78.98;101337.28;4999611;28;20030;-82
2023/02/27 05:58:18;;;;;;;2.15;1.40;;;;;;;4.04;80.48;101350.09;5009982;28;20032;-84
2023/02/27 06:00:46;;;;;;;11.18;4.07;;;;;;;3.94;79.16;101344.22;4998824;28;20036;-85
2023/02/27 06:03:12;;;;;;;5.00;2.63;;;;;;;3.87;78.93;101341.72;5019949;28;20049;-94
2023/02/27 06:05:37;;;;;;;9.15;3.47;;;;;;;3.72;78.64;101315.41;4991668;28;20509;-79
2023/02/27 06:08:03;;;;;;;5.65;2.75;;;;;;;3.90;78.45;101367.28;4994876;28;20030;-84
2023/02/27 06:10:28;;;;;;;2.67;1.88;;;;;;;3.99;78.05;101380.00;4994918;28;20041;-85
2023/02/27 06:12:54;;;;;;;2.55;2.33;;;;;;;3.92;78.52;101374.06;4993467;28;20485;-84
2023/02/27 06:15:19;;;;;;;6.53;3.47;;;;;;;4.13;77.69;101373.03;5008241;28;20485;-81
2023/02/27 06:17:45;;;;;;;5.65;2.38;;;;;;;4.03;77.94;101369.72;5004581;28;20034;-91
2023/02/27 06:20:11;;;;;;;2.60;2.35;;;;;;;4.14;77.22;101397.78;4994780;28;20037;-92
2023/02/27 06:22:36;;;;;;;3.80;2.67;;;;;;;4.20;77.56;101399.41;5012268;28;20072;-84
2023/02/27 06:25:02;;;;;;;3.33;1.77;;;;;;;4.19;77.78;101405.41;4994185;28;20040;-85
2023/02/27 06:27:27;;;;;;;5.60;2.38;;;;;;;4.20;77.52;101402.81;4994313;28;20533;-92
2023/02/27 06:29:53;;;;;;;2.22;1.73;;;;;;;4.26;77.28;101407.88;4994524;28;20034;-86
2023/02/27 06:32:19;;;;;;;7.10;3.63;;;;;;;4.30;76.48;101409.53;5002383;28;20087;-83
2023/02/27 06:34:45;;;;;;;2.30;1.70;;;;;;;4.33;76.29;101403.56;5004494;28;20026;-84
2023/02/27 06:37:10;;;;;;;7.70;2.97;;;;;;;4.46;75.41;101411.94;5006342;28;20040;-91
2023/02/27 06:39:35;;;;;;;0.75;0.75;;;;;;;4.55;76.89;101415.25;4996088;28;20583;-89
2023/02/27 06:42:01;;;;;;;3.03;1.77;;;;;;;4.61;75.65;101419.44;5019275;28;20111;-80
2023/02/27 06:44:26;;;;;;;3.35;2.65;;;;;;;4.44;73.87;101413.69;5004523;28;20539;-78
2023/02/27 06:46:52;;;;;;;1.48;1.25;;;;;;;4.50;74.31;101432.38;5021293;28;20067;-85
2023/02/27 06:49:17;;;;;;;3.53;2.17;;;;;;;4.55;74.70;101429.78;5003037;28;20021;-82
2023/02/27 06:51:43;;;;;;;4.90;3.00;;;;;;;4.51;74.95;101438.34;5004029;28;20034;-88
2023/02/27 06:54:09;;;;;;;4.07;2.65;;;;;;;4.65;74.54;101436.50;5006186;28;20026;-92
2023/02/27 06:56:34;;;;;;;4.88;2.97;;;;;;;4.75;73.57;101447.50;5023544;28;20028;-89
2023/02/27 06:59:00;;;;;;;2.60;1.55;;;;;;;4.72;73.49;101458.66;5006276;28;20029;-86
2023/02/27 07:01:25;;;;;;;2.58;2.30;;;;;;;4.62;72.50;101431.38;5021627;28;20461;-86
2023/02/27 07:03:51;;;;;;;3.40;2.83;;;;;;;4.65;73.90;101436.50;5008976;28;20129;-84
2023/02/27 07:06:16;;;;;;;6.57;2.80;;;;;;;4.65;72.54;101426.25;5036811;28;20444;-84
2023/02/27 07:08:42;;;;;;;9.60;2.25;;;;;;;4.67;73.50;101423.66;5006729;28;20033;-89
2023/02/27 07:11:07;;;;;;;5.78;2.10;;;;;;;4.68;74.08;101409.97;4992912;28;20031;-86
2023/02/27 07:13:33;;;;;;;4.05;2.28;;;;;;;4.70;72.86;101424.47;5017933;28;20072;-86
2023/02/27 07:15:58;;;;;;;6.97;4.63;;;;;;;4.95;72.54;101439.56;5018257;28;20030;-91
2023/02/27 07:18:24;;;;;;;2.47;1.80;;;;;;;4.76;72.72;101424.41;5006508;28;20041;-93
2023/02/27 07:20:50;;;;;;;5.90;2.15;;;;;;;4.89;73.00;101440.47;5022107;28;20021;-83
2023/02/27 07:23:16;;;;;;;6.63;5.25;;;;;;;5.09;72.74;101447.91;4996741;28;20844;-92
2023/02/27 07:25:41;;;;;;;6.78;3.63;;;;;;;5.15;71.69;101448.69;4997372;28;20026;-93
2023/02/27 07:28:07;;;;;;;6.22;2.50;;;;;;;5.11;70.51;101441.91;5035699;28;20037;-90
2023/02/27 07:30:32;;;;;;;8.15;4.43;;;;;;;5.13;71.26;101429.06;4995281;28;20551;-88
2023/02/27 07:32:58;;;;;;;17.02;7.43;;;;;;;5.16;72.05;101432.44;5009392;28;20493;-90
2023/02/27 07:35:23;;;;;;;2.85;2.45;;;;;;;5.21;72.52;101452.03;5008925;28;20029;-81
2023/02/27 07:37:49;;;;;;;4.65;3.60;;;;;;;5.28;71.30;101446.78;5022599;28;20069;-84
2023/02/27 07:40:15;;;;;;;14.07;4.15;;;;;;;5.13;70.57;101454.72;5019789;28;20021;-83
2023/02/27 07:42:40;;;;;;;8.70;3.58;;;;;;;5.09;71.56;101453.88;4997701;28;20038;-89
2023/02/27 07:45:07;;;;;;;5.93;2.85;;;;;;;5.14;72.47;101457.25;5019873;28;20484;-91
2023/02/27 07:47:32;;;;;;;6.78;3.63;;;;;;;5.25;71.53;101467.38;4998950;28;20076;-93
2023/02/27 07:49:57;;;;;;;5.45;3.13;;;;;;;5.12;71.66;101459.00;5007925;28;20057;-89
2023/02/27 07:52:23;;;;;;;7.22;3.55;;;;;;;5.33;71.45;101455.28;5011335;28;20524;-88
2023/02/27 07:54:49;;;;;;;6.10;4.43;;;;;;;5.53;70.78;101465.25;5008387;28;20064;-88
2023/02/27 07:57:14;;;;;;;8.73;6.72;;;;;;;5.39;71.19;101439.78;5001237;28;20065;-87
2023/02/27 07:59:40;;;;;;;6.25;4.00;;;;;;;5.71;70.21;101484.69;5011823;28;20041;-90
2023/02/27 08:02:06;;;;;;;7.07;3.85;;;;;;;5.50;70.14;101459.31;5004845;28;20029;-88
2023/02/27 08:04:31;;;;;;;20.77;3.33;;;;;;;5.41;68.85;101450.06;5019615;28;20036;-94
2023/02/27 08:06:57;;;;;;;6.13;2.92;;;;;;;5.55;68.52;101472.94;5006176;28;20031;-87
2023/02/27 08:09:22;;;;;;;5.47;3.15;;;;;;;5.57;69.72;101481.47;4996163;28;20038;-94
2023/02/27 08:11:48;;;;;;;24.80;12.25;;;;;;;5.71;70.26;101487.25;5004698;28;20069;-91
2023/02/27 08:14:14;;;;;;;9.73;5.43;;;;;;;5.71;70.15;101493.25;5028791;28;20033;-87
2023/02/27 08:16:39;;;;;;;7.30;4.75;;;;;;;5.85;70.63;101477.59;5000749;28;20038;-85
2023/02/27 08:19:04;;;;;;;4.82;3.58;;;;;;;5.93;68.66;101486.06;5025920;28;20498;-90
2023/02/27 08:21:30;;;;;;;8.57;4.50;;;;;;;5.81;68.97;101493.09;5018125;28;20072;-85
2023/02/27 08:23:55;;;;;;;5.57;2.55;;;;;;;5.82;66.82;101503.34;5016341;28;20499;-86
2023/02/27 08:26:21;;;;;;;5.18;3.53;;;;;;;5.92;67.65;101506.66;5004964;28;20401;-86
2023/02/27 08:28:46;;;;;;;10.77;4.07;;;;;;;5.97;68.49;101505.69;4996858;28;20057;-83
2023/02/27 08:31:12;;;;;;;9.95;4.53;;;;;;;5.98;67.47;101512.50;5028495;28;20108;-85
2023/02/27 08:33:46;;;;;;;4.63;2.92;;;;;;;6.08;69.23;101507.22;4997386;28;20033;-90
2023/02/27 08:36:12;;;;;;;7.55;5.57;;;;;;;6.09;68.12;101511.50;5031821;28;20041;-94
2023/02/27 08:38:37;;;;;;;4.65;3.53;;;;;;;6.10;69.50;101503.78;5010128;28;20382;-90
2023/02/27 08:41:03;;;;;;;3.30;2.72;;;;;;;6.19;68.64;101524.16;5015364;28;20056;-90
2023/02/27 08:43:28;;;;;;;10.48;4.07;;;;;;;6.24;68.02;101516.41;5028035;28;20030;-88
2023/02/27 08:45:54;;;;;;;5.03;2.90;;;;;;;6.40;65.97;101538.41;4997374;28;20030;-87
2023/02/27 08:48:19;;;;;;;8.80;4.80;;;;;;;6.21;66.72;101539.56;4998935;28;20033;-92
2023/02/27 08:50:45;;;;;;;9.10;4.70;;;;;;;6.13;65.63;101539.69;5018295;28;20408;-90
2023/02/27 08:53:11;;;;;;;7.55;3.92;;;;;;;5.95;66.14;101515.13;5001511;28;20069;-80
2023/02/27 08:55:36;;;;;;;3.35;1.92;;;;;;;6.08;66.58;101541.47;5008509;28;20470;-90
2023/02/27 08:58:02;;;;;;;3.97;3.42;;;;;;;6.06;66.07;101532.09;4997303;28;20045;-86
2023/02/27 09:00:27;;;;;;;6.47;2.63;;;;;;;6.14;66.02;101537.97;5034631;28;20026;-96
2023/02/27 09:02:53;;;;;;;6.15;4.05;;;;;;;6.14;65.46;101540.53;5014165;28;20287;-85
2023/02/27 09:05:19;;;;;;;3.42;2.33;;;;;;;6.14;64.89;101541.38;5002892;28;20029;-91
2023/02/27 09:07:44;;;;;;;2.28;1.88;;;;;;;6.16;67.18;101536.22;5000238;28;20033;-93
2023/02/27 09:10:11;;;;;;;8.38;3.10;;;;;;;6.38;67.07;101534.97;5007977;28;20025;-84
2023/02/27 09:12:37;;;;;;;1.95;1.77;;;;;;;6.47;65.48;101537.41;4999735;28;20109;-85
2023/02/27 09:15:04;;;;;;;2.25;1.80;;;;;;;6.61;65.77;101530.31;5014825;28;20026;-94
2023/02/27 09:17:30;;;;;;;2.78;2.28;;;;;;;6.67;66.21;101518.19;4999341;28;20093;-95
2023/02/27 09:19:55;;;;;;;4.65;2.47;;;;;;;6.75;65.91;101527.47;4996530;28;20036;-90
2023/02/27 09:22:20;;;;;;;4.57;2.88;;;;;;;6.74;64.28;101527.50;4999933;28;20053;-88
2023/02/27 09:24:46;;;;;;;4.50;2.33;;;;;;;7.00;63.77;101543.28;4999145;28;20101;-88
2023/02/27 09:27:11;;;;;;;3.80;2.25;;;;;;;7.07;62.88;101521.69;5000064;28;20056;-84
2023/02/27 09:29:37;;;;;;;9.07;3.47;;;;;;;7.17;64.31;101535.22;4996029;28;20068;-89
2023/02/27 09:32:03;;;;;;;3.53;2.00;;;;;;;7.08;60.54;101536.28;5001238;28;20033;-94
2023/02/27 09:34:29;;;;;;;4.43;2.38;;;;;;;6.84;60.89;101529.03;5026338;28;20129;-87
2023/02/27 09:36:58;;;;;;;3.78;2.55;;;;;;;6.94;62.41;101535.69;5025337;28;20029;-96
2023/02/27 09:39:23;;;;;;;2.17;1.75;;;;;;;7.02;60.18;101525.25;4996367;28;20030;-93
2023/02/27 09:41:57;;;;;;;7.00;2.97;;;;;;;7.21;60.55;101538.59;5021632;28;20571;-94
2023/02/27 09:44:36;;;;;;;5.65;2.72;;;;;;;7.30;60.59;101541.00;5019847;28;20017;-92
2023/02/27 09:47:03;;;;;;;6.45;3.10;;;;;;;7.48;60.33;101548.31;5005543;28;20056;-93
2023/02/27 09:49:32;;;;;;;2.85;1.58;;;;;;;7.49;59.83;101550.00;5004996;28;20030;-88
2023/02/27 09:51:57;;;;;;;11.98;3.40;;;;;;;7.41;60.39;101559.63;4989523;28;20104;-95
2023/02/27 09:54:23;;;;;;;12.45;6.80;;;;;;;7.55;59.02;101570.47;5012122;28;20030;-90
2023/02/27 09:56:55;;;;;;;4.35;2.53;;;;;;;7.48;59.02;101538.03;4999398;28;20041;-89
2023/02/27 09:59:41;;;;;;;1.25;1.00;;;;;;;7.81;59.77;101572.47;5018430;28;20041;-89
2023/02/27 10:02:31;;;;;;;2.83;2.10;;;;;;;7.94;59.80;101578.19;5001876;28;20116;-88
2023/02/27 10:05:15;;;;;;;5.00;2.40;;;;;;;8.02;58.36;101555.69;5010422;28;20037;-93
2023/02/27 10:07:46;;;;;;;5.13;4.72;;;;;;;8.02;58.04;101558.25;5008118;28;20040;-83
2023/02/27 10:10:27;;;;;;;9.45;3.70;;;;;;;8.29;58.17;101590.28;5002949;28;20105;-96
2023/02/27 10:13:14;;;;;;;3.53;1.50;;;;;;;8.38;58.16;101584.94;5016984;28;20036;-86
2023/02/27 10:15:42;;;;;;;2.20;1.10;;;;;;;8.25;57.66;101568.00;5010928;28;20033;-93
2023/02/27 10:18:19;;;;;;;5.57;2.80;;;;;;;8.38;58.03;101582.34;5003495;28;20034;-96
2023/02/27 10:20:57;;;;;;;3.08;2.40;;;;;;;8.53;56.04;101573.38;4999230;28;20065;-85
2023/02/27 10:23:43;;;;;;;3.28;1.90;;;;;;;8.55;57.34;101561.28;4997880;28;20592;-94
2023/02/27 10:26:20;;;;;;;5.82;2.70;;;;;;;8.66;56.94;101568.75;5022249;28;20030;-85
2023/02/27 10:28:46;;;;;;;6.65;4.03;;;;;;;8.66;56.78;101579.09;5015950;28;20053;-80
2023/02/27 10:31:16;;;;;;;8.05;3.30;;;;;;;8.58;57.28;101566.38;5012458;28;20076;-86
2023/02/27 10:33:41;;;;;;;3.58;2.25;;;;;;;8.62;55.76;101583.44;4988698;28;20037;-80
2023/02/27 10:36:10;;;;;;;2.50;1.60;;;;;;;8.75;57.15;101608.06;5000804;28;20513;-96
2023/02/27 10:38:45;;;;;;;5.50;2.63;;;;;;;8.59;56.21;101589.53;4991585;28;20031;-89
2023/02/27 10:41:11;;;;;;;6.00;2.67;;;;;;;8.71;55.87;101588.38;5027649;28;20520;-86
2023/02/27 10:43:37;;;;;;;2.67;1.65;;;;;;;8.66;55.35;101579.09;5000286;28;20030;-86
2023/02/27 10:46:09;;;;;;;12.43;3.72;;;;;;;8.89;55.59;101576.72;5011926;28;20080;-87
2023/02/27 10:48:34;;;;;;;3.53;1.75;;;;;;;9.24;55.08;101591.25;5001565;28;21191;-85
2023/02/27 10:51:19;;;;;;;2.20;1.60;;;;;;;9.31;53.62;101626.34;5000194;28;20097;-88
2023/02/27 10:53:45;;;;;;;8.27;2.90;;;;;;;9.26;55.08;101602.41;5028230;28;20034;-89
2023/02/27 10:56:17;;;;;;;4.97;1.95;;;;;;;9.26;53.03;101597.22;5024977;28;20040;-91
2023/02/27 10:58:43;;;;;;;6.85;3.50;;;;;;;9.33;53.95;101619.38;5004404;28;20468;-88
2023/02/27 11:01:09;;;;;;;5.25;2.28;;;;;;;9.33;53.02;101629.72;5006557;28;20045;-95
2023/02/27 11:03:36;;;;;;;3.03;2.33;;;;;;;9.22;53.73;101603.34;5000566;28;20091;-88
2023/02/27 11:06:05;;;;;;;3.50;1.80;;;;;;;9.47;53.24;101619.03;4999961;28;20045;-96
2023/02/27 11:08:32;;;;;;;6.03;2.72;;;;;;;9.37;53.50;101615.84;5005100;28;20117;-91
2023/02/27 11:11:08;;;;;;;7.88;4.30;;;;;;;9.35;53.79;101620.22;5002573;28;20025;-83
2023/02/27 11:13:41;;;;;;;6.38;3.67;;;;;;;9.36;52.95;101624.50;4991737;28;20025;-85
2023/02/27 11:16:12;;;;;;;;;;;;;;;9.32;53.59;101632.34;4995491;28;20026;-83
2023/02/27 11:18:39;;;;;;;6.00;2.05;;;;;;;9.16;54.29;101627.63;5009221;28;19917;-86
2023/02/27 11:21:23;;;;;;;2.60;1.50;;;;;;;8.96;53.68;101636.78;5009167;28;20413;-90
2023/02/27 11:23:53;;;;;;;4.93;3.55;;;;;;;8.93;55.15;101616.19;5008034;28;20018;-83
2023/02/27 11:26:24;;;;;;;6.28;3.20;;;;;;;8.98;53.99;101629.84;5004635;28;20452;-83
2023/02/27 11:29:11;;;;;;;7.20;4.38;;;;;;;8.89;53.51;101634.34;5008836;28;20029;-84
2023/02/27 11:31:37;;;;;;;9.23;5.32;;;;;;;8.78;53.83;101628.63;4993011;28;21023;-88
2023/02/27 11:34:03;;;;;;;4.78;3.55;;;;;;;8.88;54.67;101642.13;4993312;28;20040;-87
2023/02/27 11:36:40;;;;;;;3.95;2.03;;;;;;;8.89;55.37;101644.66;5008911;28;20398;-88
2023/02/27 11:39:06;;;;;;;2.47;1.67;;;;;;;8.72;54.77;101641.66;5022837;28;20034;-84
2023/02/27 11:41:32;;;;;;;6.03;3.28;;;;;;;8.55;54.69;101628.34;4989344;28;20044;-82
2023/02/27 11:43:57;;;;;;;4.47;3.60;;;;;;;8.65;55.16;101650.44;5004141;28;20022;-89
2023/02/27 11:46:24;;;;;;;8.43;3.30;;;;;;;8.83;56.23;101642.25;5023314;28;20112;-87
2023/02/27 11:48:56;;;;;;;2.10;2.00;;;;;;;8.70;55.32;101658.94;5009710;28;20026;-83